Time;durP1;ratioP1;P1;durP2;ratioP2;P2;SDS_P1;SDS_P2;PMS_P1;PMS_P2;Temp;Humidity;BMP_temperature;BMP_pressure;BME280_temperature;BME280_humidity;BME280_pressure;Samples;Min_cycle;Max_cycle;Signal;HPM_P1;HPM_P2
2023/08/05 00:01:14;;;;;;;10.90;5.45;;;;;;;13.87;95.35;100485.47;10122145;28;20572;-78
2023/08/05 00:06:17;;;;;;;9.27;5.60;;;;;;;13.80;94.20;100478.97;10119985;28;20192;-79
2023/08/05 00:11:20;;;;;;;9.55;6.07;;;;;;;13.73;94.47;100484.06;10119885;29;20111;-79
2023/08/05 00:16:24;;;;;;;8.65;5.93;;;;;;;13.57;95.12;100475.69;10122990;29;20154;-79
2023/08/05 00:21:27;;;;;;;6.97;6.28;;;;;;;13.66;95.44;100480.25;10112817;29;20054;-78
2023/08/05 00:26:30;;;;;;;9.20;5.70;;;;;;;13.73;95.77;100477.81;10130499;28;20135;-77
2023/08/05 00:31:34;;;;;;;7.30;6.00;;;;;;;13.73;95.42;100477.81;10134831;28;20052;-79
2023/08/05 00:36:36;;;;;;;43.78;7.57;;;;;;;13.63;93.54;100478.69;10135183;29;20047;-79
2023/08/05 00:41:39;;;;;;;7.97;6.10;;;;;;;13.46;94.45;100469.41;10131942;29;20063;-78
2023/08/05 00:46:44;;;;;;;9.88;6.78;;;;;;;13.41;94.58;100470.81;10128379;29;20055;-79
2023/08/05 00:51:47;;;;;;;8.65;7.03;;;;;;;13.47;95.39;100471.13;10129922;28;20087;-79
2023/08/05 00:56:50;;;;;;;7.45;5.60;;;;;;;13.49;95.35;100477.25;10131065;29;20100;-80
2023/08/05 01:01:55;;;;;;;9.18;7.30;;;;;;;13.60;95.61;100481.66;10128484;28;20055;-79
2023/08/05 01:06:59;;;;;;;7.32;6.50;;;;;;;13.70;95.67;100468.16;10165244;29;20211;-79
2023/08/05 01:12:02;;;;;;;8.25;6.45;;;;;;;13.71;95.40;100476.13;10149628;29;21180;-79
2023/08/05 01:17:07;;;;;;;7.55;6.70;;;;;;;13.76;95.52;100470.28;10137709;29;20052;-80
2023/08/05 01:22:18;;;;;;;9.65;7.43;;;;;;;13.84;95.62;100474.97;10158079;28;20059;-78
2023/08/05 01:27:24;;;;;;;8.27;7.40;;;;;;;13.87;95.75;100466.56;10137073;28;20062;-78
2023/08/05 01:32:29;;;;;;;10.38;7.60;;;;;;;13.81;95.36;100467.16;10132793;29;20127;-78
2023/08/05 01:37:32;;;;;;;7.82;6.85;;;;;;;13.78;95.38;100465.59;10120316;29;20048;-78
2023/08/05 01:42:37;;;;;;;6.20;5.60;;;;;;;13.55;94.67;100465.03;10152709;29;20058;-78
2023/08/05 01:47:40;;;;;;;8.50;7.60;;;;;;;13.62;95.28;100476.09;10145825;28;21321;-80
2023/08/05 01:52:43;;;;;;;14.75;7.63;;;;;;;13.72;95.26;100476.97;10131907;29;20052;-79
2023/08/05 01:57:47;;;;;;;10.02;7.72;;;;;;;13.82;95.58;100485.03;10129894;29;20071;-79
2023/08/05 02:02:50;;;;;;;8.40;7.40;;;;;;;13.96;95.84;100478.34;10133877;29;20048;-80
2023/08/05 02:07:53;;;;;;;32.60;7.28;;;;;;;13.66;93.92;100485.63;10135672;29;20055;-81
2023/08/05 02:12:57;;;;;;;8.40;7.47;;;;;;;13.56;94.70;100476.69;10138282;28;20048;-80
2023/08/05 02:18:00;;;;;;;16.08;8.15;;;;;;;13.69;94.80;100477.25;10128185;28;20049;-80
2023/08/05 02:23:03;;;;;;;11.13;7.63;;;;;;;13.89;95.72;100475.38;10135651;29;20051;-80
2023/08/05 02:28:07;;;;;;;9.85;8.43;;;;;;;14.01;95.65;100473.38;10125895;29;20059;-79
2023/08/05 02:33:10;;;;;;;10.48;8.15;;;;;;;14.07;95.53;100478.19;10133399;29;20080;-79
2023/08/05 02:38:14;;;;;;;12.55;8.93;;;;;;;13.83;94.74;100474.13;10129916;28;20168;-81
2023/08/05 02:43:18;;;;;;;14.45;8.23;;;;;;;13.87;95.30;100464.72;10136699;29;20063;-79
2023/08/05 02:48:21;;;;;;;12.48;8.90;;;;;;;13.94;95.22;100468.56;10138531;28;20059;-80
2023/08/05 02:53:24;;;;;;;10.82;7.85;;;;;;;14.00;95.30;100466.28;10136297;29;20435;-80
2023/08/05 02:58:29;;;;;;;13.52;8.20;;;;;;;14.01;95.37;100454.47;10136973;29;20056;-80
2023/08/05 03:03:31;;;;;;;13.35;7.70;;;;;;;14.06;95.26;100458.44;10134948;29;20820;-79
2023/08/05 03:08:34;;;;;;;14.18;8.52;;;;;;;14.20;95.80;100457.13;10148054;28;20048;-79
2023/08/05 03:13:39;;;;;;;12.30;7.57;;;;;;;14.15;95.46;100456.72;10192800;28;20104;-78
2023/08/05 03:18:42;;;;;;;11.93;7.10;;;;;;;14.07;94.05;100452.06;10164329;28;20484;-79
2023/08/05 03:23:45;;;;;;;17.45;7.38;;;;;;;14.11;95.24;100444.50;10135899;29;20055;-79
2023/08/05 03:28:50;;;;;;;13.25;7.47;;;;;;;14.15;95.42;100446.78;10155364;29;20060;-79
2023/08/05 03:33:53;;;;;;;11.82;8.50;;;;;;;14.15;95.55;100443.19;10152370;28;20055;-79
2023/08/05 03:38:56;;;;;;;10.65;8.15;;;;;;;14.12;95.43;100438.09;10141121;28;20043;-80
2023/08/05 03:44:01;;;;;;;17.27;8.43;;;;;;;14.11;95.85;100441.81;10136080;29;20190;-78
2023/08/05 03:49:04;;;;;;;11.27;8.23;;;;;;;14.13;95.73;100437.13;10176449;28;20036;-78
2023/08/05 03:54:06;;;;;;;11.30;7.80;;;;;;;14.05;95.50;100428.88;10149805;29;20422;-78
2023/08/05 03:59:12;;;;;;;13.43;7.82;;;;;;;14.08;94.99;100423.19;10134628;28;20060;-81
2023/08/05 04:04:15;;;;;;;8.90;7.72;;;;;;;14.13;95.70;100426.31;10151095;28;20048;-80
2023/08/05 04:09:19;;;;;;;11.23;7.43;;;;;;;14.14;94.04;100425.31;10137137;29;20052;-80
2023/08/05 04:14:24;;;;;;;16.20;7.25;;;;;;;14.08;94.85;100423.19;10137409;29;20108;-79
2023/08/05 04:19:27;;;;;;;17.15;7.95;;;;;;;14.00;94.73;100421.22;10125544;29;20052;-81
2023/08/05 04:24:32;;;;;;;13.57;8.10;;;;;;;14.00;95.18;100406.88;10129670;28;20053;-81
2023/08/05 04:29:36;;;;;;;24.08;8.82;;;;;;;14.03;95.73;100399.31;10129355;28;20816;-81
2023/08/05 04:34:39;;;;;;;11.85;9.55;;;;;;;14.18;95.58;100409.63;10131893;28;20078;-81
2023/08/05 04:39:41;;;;;;;19.92;9.77;;;;;;;14.28;96.00;100413.16;10131123;29;20135;-80
2023/08/05 04:44:46;;;;;;;14.98;9.38;;;;;;;14.43;96.15;100413.59;10131644;29;20056;-81
2023/08/05 04:49:49;;;;;;;16.45;10.25;;;;;;;14.53;96.36;100417.91;10128208;29;20052;-81
2023/08/05 04:54:52;;;;;;;13.18;9.32;;;;;;;14.59;96.10;100413.81;10132431;28;20102;-79
2023/08/05 04:59:56;;;;;;;16.85;9.30;;;;;;;14.54;95.86;100416.94;10133116;28;21205;-80
2023/08/05 05:04:58;;;;;;;11.30;9.48;;;;;;;14.75;96.15;100419.38;10125640;29;20143;-80
2023/08/05 05:10:01;;;;;;;15.25;9.18;;;;;;;14.53;95.88;100422.47;10138561;29;20504;-78
2023/08/05 05:15:06;;;;;;;16.88;9.60;;;;;;;14.76;96.14;100421.09;10126028;29;20055;-78
2023/08/05 05:20:10;;;;;;;15.95;9.88;;;;;;;14.91;96.03;100423.28;10122393;28;20054;-81
2023/08/05 05:25:13;;;;;;;13.15;9.45;;;;;;;14.95;96.16;100424.69;10139364;28;20052;-80
2023/08/05 05:30:17;;;;;;;13.32;9.40;;;;;;;15.09;95.91;100428.75;10134666;29;20056;-82
2023/08/05 05:35:20;;;;;;;11.13;8.88;;;;;;;15.05;95.56;100426.31;10137568;29;20166;-80
2023/08/05 05:40:23;;;;;;;18.23;10.02;;;;;;;15.22;96.13;100431.91;10130646;29;20064;-81
2023/08/05 05:45:28;;;;;;;16.88;12.15;;;;;;;15.28;95.70;100425.91;10165138;29;20132;-79
2023/08/05 05:50:31;;;;;;;18.08;12.65;;;;;;;15.37;95.87;100425.00;10150746;28;20048;-80
2023/08/05 05:55:33;;;;;;;22.13;13.07;;;;;;;15.36;94.91;100430.53;10143410;29;20060;-80
2023/08/05 06:00:39;;;;;;;19.25;13.18;;;;;;;15.22;95.03;100430.06;10157346;29;20063;-82
2023/08/05 06:05:42;;;;;;;18.10;12.90;;;;;;;15.18;94.18;100427.81;10131187;29;20048;-81
2023/08/05 06:10:45;;;;;;;17.45;14.00;;;;;;;15.26;94.25;100428.75;10129093;28;20044;-79
2023/08/05 06:15:50;;;;;;;18.88;15.32;;;;;;;15.61;94.83;100435.19;10132376;28;20056;-80
2023/08/05 06:20:53;;;;;;;21.55;12.85;;;;;;;15.59;93.24;100434.50;10136769;29;20048;-81
2023/08/05 06:25:56;;;;;;;19.33;13.23;;;;;;;15.59;94.77;100439.91;10140096;29;20048;-79
2023/08/05 06:31:00;;;;;;;20.77;14.00;;;;;;;15.63;94.59;100425.06;10133541;29;21611;-80
2023/08/05 06:36:03;;;;;;;16.98;12.98;;;;;;;15.68;93.78;100416.44;10140580;29;20178;-81
2023/08/05 06:41:06;;;;;;;19.63;14.07;;;;;;;15.95;94.64;100418.19;10138169;28;21250;-80
2023/08/05 06:46:10;;;;;;;16.55;9.27;;;;;;;16.10;93.82;100421.19;10140160;29;20051;-79
2023/08/05 06:51:13;;;;;;;12.77;8.82;;;;;;;15.96;92.56;100428.00;10130153;29;20068;-78
2023/08/05 06:56:16;;;;;;;15.68;10.55;;;;;;;16.19;93.61;100419.38;10137823;29;20048;-79
2023/08/05 07:01:20;;;;;;;13.18;9.43;;;;;;;16.27;93.41;100408.59;10134976;29;20044;-79
2023/08/05 07:06:23;;;;;;;11.80;9.35;;;;;;;16.27;91.56;100403.19;10132878;28;20055;-79
2023/08/05 07:11:26;;;;;;;13.57;11.23;;;;;;;16.46;91.91;100400.22;10133271;29;20048;-78
2023/08/05 07:16:30;;;;;;;14.32;11.57;;;;;;;16.75;92.21;100399.81;10130278;29;20098;-79
2023/08/05 07:21:33;;;;;;;13.52;9.70;;;;;;;16.81;90.59;100382.91;10128711;29;20052;-78
2023/08/05 07:26:36;;;;;;;17.98;11.38;;;;;;;16.87;88.46;100384.13;10143479;29;20055;-77
2023/08/05 07:31:40;;;;;;;15.93;11.65;;;;;;;16.85;89.97;100390.72;10140361;28;20051;-78
2023/08/05 07:36:44;;;;;;;10.50;7.88;;;;;;;17.46;93.61;100378.63;10145192;28;20439;-76
2023/08/05 07:41:49;;;;;;;14.32;9.70;;;;;;;17.73;87.86;100380.13;10158686;29;20096;-77
2023/08/05 07:46:54;;;;;;;11.05;8.43;;;;;;;17.81;87.29;100377.41;10160033;29;20086;-80
2023/08/05 07:51:56;;;;;;;15.65;9.40;;;;;;;17.77;86.05;100373.34;10145140;29;20063;-77
2023/08/05 07:56:59;;;;;;;10.43;8.18;;;;;;;17.70;87.03;100372.34;10144569;29;20052;-80
2023/08/05 08:02:07;;;;;;;10.18;6.38;;;;;;;17.82;90.46;100367.38;10136048;28;20049;-80
2023/08/05 08:07:10;;;;;;;7.32;5.80;;;;;;;18.01;87.89;100355.31;10138829;29;20044;-80
2023/08/05 08:12:13;;;;;;;8.00;5.78;;;;;;;18.36;84.03;100348.59;10127869;29;20515;-78
2023/08/05 08:17:18;;;;;;;8.43;4.80;;;;;;;18.53;87.08;100343.94;10136174;29;20051;-78
2023/08/05 08:22:20;;;;;;;9.23;5.55;;;;;;;18.04;79.73;100344.09;10167130;29;20054;-78
2023/08/05 08:27:23;;;;;;;10.48;6.60;;;;;;;18.80;78.43;100329.84;10159162;28;20063;-77
2023/08/05 08:32:27;;;;;;;7.32;6.35;;;;;;;19.29;81.92;100328.66;10138226;29;20889;-78
2023/08/05 08:37:31;;;;;;;7.38;5.10;;;;;;;19.99;78.07;100313.88;10128108;29;20130;-78
2023/08/05 08:42:34;;;;;;;6.80;6.07;;;;;;;20.21;77.03;100311.22;10137027;29;20051;-77
2023/08/05 08:47:39;;;;;;;7.80;5.20;;;;;;;20.60;79.78;100318.25;10135300;29;20079;-77
2023/08/05 08:52:45;;;;;;;6.72;5.35;;;;;;;20.86;77.08;100298.63;10136001;28;20404;-77
2023/08/05 08:57:48;;;;;;;8.48;5.57;;;;;;;21.58;78.12;100287.50;10134863;28;20184;-78
2023/08/05 09:02:53;;;;;;;6.97;4.60;;;;;;;21.38;72.05;100292.81;10131021;29;20579;-77
2023/08/05 09:07:57;;;;;;;4.13;3.72;;;;;;;21.60;70.32;100282.69;10122008;29;20060;-77
2023/08/05 09:13:03;;;;;;;5.28;3.55;;;;;;;20.41;62.10;100276.06;10133232;28;20404;-77
2023/08/05 09:18:11;;;;;;;6.85;4.35;;;;;;;20.16;67.75;100278.22;10135951;28;20044;-78
2023/08/05 09:23:15;;;;;;;9.20;5.22;;;;;;;20.46;70.28;100269.00;10141070;28;20078;-77
2023/08/05 09:28:30;;;;;;;6.25;3.90;;;;;;;20.93;70.45;100264.88;10144284;29;20427;-78
2023/08/05 09:33:36;;;;;;;13.52;4.65;;;;;;;21.36;62.66;100256.66;10143185;29;20054;-78
2023/08/05 09:38:40;;;;;;;6.75;4.13;;;;;;;22.49;63.85;100253.75;10147047;29;20077;-78
2023/08/05 09:43:45;;;;;;;7.63;4.18;;;;;;;23.38;53.86;100250.72;10150227;29;20508;-78
2023/08/05 09:48:50;;;;;;;4.55;3.60;;;;;;;23.95;51.80;100244.75;10148762;28;20052;-78
2023/08/05 09:53:55;;;;;;;6.35;3.63;;;;;;;23.13;52.49;100233.25;10129949;29;20051;-77
2023/08/05 09:58:59;;;;;;;5.22;3.25;;;;;;;23.02;50.24;100217.44;10128917;29;21194;-79
2023/08/05 10:04:03;;;;;;;3.75;3.17;;;;;;;23.37;49.90;100213.44;10127142;28;20045;-78
2023/08/05 10:09:07;;;;;;;6.43;3.72;;;;;;;23.41;52.78;100206.44;10117172;29;20045;-77
2023/08/05 10:14:11;;;;;;;4.85;3.50;;;;;;;22.68;52.84;100194.63;10128272;28;20056;-79
2023/08/05 10:19:27;;;;;;;4.82;3.40;;;;;;;22.75;53.56;100192.75;10159218;29;20059;-78
2023/08/05 10:24:50;;;;;;;4.47;3.65;;;;;;;22.41;53.56;100172.69;10163182;29;20036;-78
2023/08/05 10:29:53;;;;;;;3.90;3.58;;;;;;;22.16;53.50;100166.94;10160394;29;20060;-79
2023/08/05 10:35:33;;;;;;;3.75;3.30;;;;;;;21.81;54.71;100161.53;10155491;29;20055;-79
2023/08/05 10:40:42;;;;;;;3.47;3.17;;;;;;;21.68;53.57;100147.78;10146786;28;20059;-79
2023/08/05 10:45:47;;;;;;;4.43;3.50;;;;;;;22.02;54.58;100152.38;10152924;29;20048;-77
2023/08/05 10:50:50;;;;;;;4.20;3.80;;;;;;;21.62;54.90;100133.03;10145668;29;20792;-79
2023/08/05 10:55:57;;;;;;;3.08;2.88;;;;;;;22.67;50.37;100122.63;10175254;29;20080;-78
2023/08/05 11:01:02;;;;;;;3.65;3.33;;;;;;;22.12;51.29;100124.63;10192987;28;20063;-77
2023/08/05 11:06:05;;;;;;;3.22;2.92;;;;;;;22.59;51.03;100111.88;10154689;28;20051;-78
2023/08/05 11:11:11;;;;;;;3.20;2.60;;;;;;;23.86;47.28;100107.00;10135691;28;20058;-77
2023/08/05 11:16:15;;;;;;;3.88;3.30;;;;;;;24.74;47.58;100098.84;10132576;29;20055;-77
2023/08/05 11:21:18;;;;;;;3.60;3.00;;;;;;;23.40;47.53;100110.75;10133679;29;20135;-78
2023/08/05 11:26:23;;;;;;;3.50;3.08;;;;;;;22.93;49.73;100116.31;10138659;29;20063;-77
2023/08/05 11:31:27;;;;;;;4.68;3.05;;;;;;;23.52;47.40;100091.75;10145410;28;20052;-77
2023/08/05 11:36:30;;;;;;;3.20;2.50;;;;;;;24.46;44.23;100079.22;10156899;29;21166;-78
2023/08/05 11:41:35;;;;;;;3.67;2.55;;;;;;;25.43;43.23;100067.75;10170651;29;20131;-78
2023/08/05 11:46:38;;;;;;;4.68;2.70;;;;;;;24.62;43.15;100056.69;10150914;29;20043;-78
2023/08/05 11:52:04;;;;;;;2.78;2.35;;;;;;;23.39;46.08;100067.94;10142846;28;20609;-78
2023/08/05 11:57:20;;;;;;;5.75;2.90;;;;;;;23.67;45.87;100059.41;10142812;28;20138;-79
2023/08/05 12:02:25;;;;;;;2.58;2.00;;;;;;;24.55;43.45;100042.19;10140134;29;20134;-78
2023/08/05 12:07:28;;;;;;;2.22;2.05;;;;;;;23.44;43.29;100046.22;10140918;29;21267;-78
2023/08/05 12:12:33;;;;;;;3.47;1.80;;;;;;;22.49;45.86;100035.69;10129316;29;20607;-79
2023/08/05 12:17:36;;;;;;;3.08;1.90;;;;;;;22.78;45.58;100028.06;10136305;28;20052;-78
2023/08/05 12:22:38;;;;;;;2.10;1.90;;;;;;;22.97;44.30;100018.13;10141623;28;20052;-78
2023/08/05 12:27:43;;;;;;;2.80;2.00;;;;;;;23.65;43.98;100013.03;10146291;29;20053;-78
2023/08/05 12:32:46;;;;;;;2.78;2.20;;;;;;;22.94;45.51;100011.16;10142424;29;20053;-78
2023/08/05 12:37:49;;;;;;;2.35;2.00;;;;;;;22.90;45.37;100000.84;10137409;29;20059;-78
2023/08/05 12:42:54;;;;;;;2.33;2.13;;;;;;;25.02;42.73;99986.78;10134736;28;20056;-78
2023/08/05 12:48:00;;;;;;;3.88;2.00;;;;;;;26.51;37.91;99973.22;10131780;28;20055;-79
2023/08/05 12:53:03;;;;;;;1.80;1.70;;;;;;;26.56;38.13;99967.84;10147531;29;21117;-79
2023/08/05 12:58:08;;;;;;;2.33;1.90;;;;;;;25.47;38.37;99961.72;10145319;29;20063;-79
2023/08/05 13:03:10;;;;;;;2.20;1.70;;;;;;;25.37;38.44;99952.13;10143108;28;20113;-79
2023/08/05 13:08:13;;;;;;;1.83;1.60;;;;;;;23.39;40.60;99963.81;10154261;28;20188;-79
2023/08/05 13:13:18;;;;;;;2.58;1.52;;;;;;;23.49;41.54;99955.97;10151676;29;20048;-78
2023/08/05 13:18:21;;;;;;;2.97;1.90;;;;;;;23.80;42.43;99951.56;10145529;29;20766;-79
2023/08/05 13:23:24;;;;;;;1.95;1.67;;;;;;;23.36;41.80;99945.91;10152345;28;20063;-79
2023/08/05 13:28:28;;;;;;;1.92;1.80;;;;;;;23.41;42.60;99934.31;10174793;29;20040;-79
2023/08/05 13:33:31;;;;;;;1.70;1.60;;;;;;;23.21;42.43;99926.19;10169387;28;20055;-77
2023/08/05 13:38:34;;;;;;;1.77;1.42;;;;;;;22.62;42.27;99925.31;10178132;28;20044;-78
2023/08/05 13:43:38;;;;;;;3.08;1.60;;;;;;;22.45;43.77;99914.00;10189857;28;20052;-78
2023/08/05 13:48:41;;;;;;;1.98;1.55;;;;;;;22.94;43.72;99909.84;10147849;29;20056;-77
2023/08/05 13:53:44;;;;;;;1.30;1.20;;;;;;;23.19;42.16;99885.31;10139991;29;20050;-80
2023/08/05 13:58:49;;;;;;;5.63;1.70;;;;;;;23.32;42.26;99873.44;10143916;29;20056;-79
2023/08/05 14:03:52;;;;;;;1.65;1.48;;;;;;;24.24;40.72;99854.53;10143083;28;20052;-80
2023/08/05 14:08:56;;;;;;;2.35;1.63;;;;;;;24.66;40.11;99841.03;10136789;28;20053;-80
2023/08/05 14:14:01;;;;;;;1.55;1.33;;;;;;;25.61;38.27;99831.19;10134529;29;20064;-79
2023/08/05 14:19:04;;;;;;;1.85;1.15;;;;;;;25.21;38.33;99825.53;10137156;29;20063;-79
2023/08/05 14:24:09;;;;;;;1.40;1.30;;;;;;;24.57;39.16;99819.59;10137440;29;20063;-79
2023/08/05 14:29:13;;;;;;;1.38;1.27;;;;;;;24.42;39.67;99811.75;10150635;28;21085;-79
2023/08/05 14:34:16;;;;;;;1.63;1.30;;;;;;;24.89;38.08;99812.81;10162186;29;20056;-80
2023/08/05 14:39:19;;;;;;;1.42;1.33;;;;;;;24.85;39.31;99811.63;10152853;29;20064;-79
2023/08/05 14:44:23;;;;;;;1.40;1.30;;;;;;;25.53;38.51;99801.31;10160832;29;20055;-80
2023/08/05 14:49:27;;;;;;;1.95;1.52;;;;;;;25.84;37.20;99792.75;10170082;29;20057;-80
2023/08/05 14:54:30;;;;;;;3.55;1.50;;;;;;;27.64;35.30;99786.13;10151288;28;20060;-80
2023/08/05 14:59:34;;;;;;;1.33;1.23;;;;;;;26.70;35.73;99781.13;10154770;28;20075;-80
2023/08/05 15:04:37;;;;;;;2.45;1.48;;;;;;;26.47;35.84;99760.03;10140510;29;21738;-77
2023/08/05 15:09:40;;;;;;;1.25;0.93;;;;;;;26.67;35.76;99763.16;10147242;29;20099;-78
2023/08/05 15:14:44;;;;;;;3.22;1.40;;;;;;;26.68;35.57;99762.06;10139017;29;20124;-78
2023/08/05 15:19:47;;;;;;;1.40;1.30;;;;;;;24.68;38.79;99750.16;10139683;28;20047;-79
2023/08/05 15:24:49;;;;;;;1.80;1.20;;;;;;;23.75;40.29;99751.22;10140366;28;20052;-79
2023/08/05 15:29:57;;;;;;;1.17;1.17;;;;;;;24.01;41.06;99752.88;10141935;29;20607;-80
2023/08/05 15:35:00;;;;;;;2.17;1.48;;;;;;;23.93;42.29;99756.75;10141320;29;20393;-80
2023/08/05 15:40:03;;;;;;;1.92;1.42;;;;;;;23.18;43.88;99745.84;10180381;29;20048;-80
2023/08/05 15:45:09;;;;;;;2.38;1.58;;;;;;;22.58;44.61;99754.41;10151828;29;20116;-80
2023/08/05 15:50:17;;;;;;;3.75;1.60;;;;;;;22.46;45.95;99743.31;10144409;28;20423;-79
2023/08/05 15:55:21;;;;;;;1.55;1.45;;;;;;;22.26;45.84;99756.19;10133982;29;20139;-80
2023/08/05 16:00:25;;;;;;;2.55;1.63;;;;;;;22.01;46.89;99740.50;10174038;28;20077;-79
2023/08/05 16:05:28;;;;;;;2.03;1.70;;;;;;;22.06;47.29;99748.06;10149490;29;20151;-79
2023/08/05 16:10:31;;;;;;;1.50;1.40;;;;;;;22.30;47.40;99732.84;10142737;29;20052;-78
2023/08/05 16:15:36;;;;;;;2.38;1.55;;;;;;;22.25;46.48;99738.94;10149400;28;20052;-79
2023/08/05 16:20:39;;;;;;;1.80;1.70;;;;;;;21.88;46.88;99726.84;10151728;29;20047;-80
2023/08/05 16:25:42;;;;;;;2.58;1.42;;;;;;;21.85;47.70;99741.78;10149880;29;20044;-80
2023/08/05 16:30:46;;;;;;;1.85;1.65;;;;;;;21.43;48.20;99723.97;10150233;29;20104;-79
2023/08/05 16:35:49;;;;;;;1.95;1.80;;;;;;;21.23;49.33;99711.19;10150020;29;20047;-79
2023/08/05 16:40:54;;;;;;;1.80;1.70;;;;;;;21.34;49.12;99706.13;10146359;28;20481;-79
2023/08/05 16:45:59;;;;;;;1.88;1.48;;;;;;;21.10;50.65;99732.19;10150157;28;20323;-78
2023/08/05 16:51:02;;;;;;;5.95;1.67;;;;;;;18.04;58.80;99771.53;10145848;29;20056;-79
2023/08/05 16:56:07;;;;;;;1.83;1.50;;;;;;;15.67;70.22;99792.88;10139662;28;20180;-82
2023/08/05 17:01:11;;;;;;;1.90;1.80;;;;;;;13.93;83.48;99794.53;10139392;29;20119;-79
2023/08/05 17:06:14;;;;;;;2.05;1.77;;;;;;;13.88;85.35;99779.81;10148533;28;20056;-79
2023/08/05 17:11:17;;;;;;;8.18;2.92;;;;;;;13.23;96.57;99818.78;10144204;29;20044;-78
2023/08/05 17:16:21;;;;;;;2.22;2.10;;;;;;;13.35;100.00;99826.63;10135362;29;20051;-78
2023/08/05 17:21:27;;;;;;;3.58;2.35;;;;;;;12.78;99.94;99827.78;10130433;29;21093;-79
2023/08/05 17:26:30;;;;;;;3.38;3.08;;;;;;;13.05;100.00;99834.09;10136080;29;20047;-80
2023/08/05 17:31:34;;;;;;;6.28;2.85;;;;;;;13.28;100.00;99816.47;10139054;29;20044;-81
2023/08/05 17:36:37;;;;;;;3.53;2.85;;;;;;;12.68;100.00;99818.91;10154953;28;20036;-78
2023/08/05 17:41:40;;;;;;;3.80;3.10;;;;;;;13.59;98.29;99820.63;10163439;29;20053;-79
2023/08/05 17:46:46;;;;;;;5.63;3.63;;;;;;;13.71;99.25;99811.25;10147203;29;20165;-79
2023/08/05 17:51:48;;;;;;;6.53;3.70;;;;;;;14.03;99.59;99812.44;10140928;29;20051;-79
2023/08/05 17:56:52;;;;;;;4.60;4.15;;;;;;;14.54;98.40;99803.44;10136907;29;20051;-80
2023/08/05 18:01:56;;;;;;;4.35;3.95;;;;;;;14.81;97.56;99802.31;10137351;28;21091;-81
2023/08/05 18:06:59;;;;;;;5.55;3.83;;;;;;;14.88;97.06;99798.94;10152835;29;20059;-78
2023/08/05 18:12:02;;;;;;;5.50;4.00;;;;;;;14.91;96.78;99798.59;10178997;29;20048;-78
2023/08/05 18:17:07;;;;;;;5.45;3.85;;;;;;;14.94;97.26;99782.03;10154956;29;20059;-82
2023/08/05 18:22:09;;;;;;;8.80;4.45;;;;;;;15.01;96.44;99774.97;10163402;28;20099;-82
2023/08/05 18:27:12;;;;;;;5.70;3.90;;;;;;;14.87;96.16;99767.50;10174451;28;20735;-80
2023/08/05 18:32:17;;;;;;;4.00;3.67;;;;;;;14.75;96.24;99794.00;10161875;29;20048;-80
2023/08/05 18:37:19;;;;;;;5.38;3.58;;;;;;;14.75;95.99;99805.66;10154419;29;20052;-81
2023/08/05 18:42:24;;;;;;;4.43;4.03;;;;;;;14.72;96.49;99821.38;10154440;29;20052;-81
2023/08/05 18:47:28;;;;;;;4.90;4.00;;;;;;;14.55;96.33;99824.03;10150144;28;20071;-79
2023/08/05 18:52:31;;;;;;;5.32;4.25;;;;;;;14.56;96.82;99803.25;10151277;28;20079;-80
2023/08/05 18:57:34;;;;;;;4.78;4.38;;;;;;;14.54;96.60;99803.44;10146291;29;20048;-80
2023/08/05 19:02:39;;;;;;;5.43;4.40;;;;;;;14.63;96.89;99788.06;10151808;29;20052;-81
2023/08/05 19:07:43;;;;;;;9.80;4.22;;;;;;;14.58;96.05;99785.00;10147752;29;20052;-80
2023/08/05 19:12:46;;;;;;;4.43;3.50;;;;;;;14.50;96.30;99787.69;10146151;29;20056;-80
2023/08/05 19:17:51;;;;;;;4.28;3.88;;;;;;;14.53;96.95;99781.97;10143037;28;20048;-81
2023/08/05 19:22:54;;;;;;;5.90;4.00;;;;;;;14.63;96.25;99784.53;10166220;29;20052;-81
2023/08/05 19:27:57;;;;;;;5.10;3.88;;;;;;;14.68;96.97;99774.06;10179188;29;20908;-76
2023/08/05 19:33:01;;;;;;;6.55;4.35;;;;;;;14.75;97.16;99767.81;10150789;29;20048;-80
2023/08/05 19:38:04;;;;;;;4.13;3.72;;;;;;;14.60;96.21;99764.09;10170568;29;20039;-77
2023/08/05 19:43:07;;;;;;;5.63;3.88;;;;;;;14.33;95.81;99747.09;10153327;28;20052;-79
2023/08/05 19:48:12;;;;;;;4.65;4.15;;;;;;;14.64;97.17;99748.38;10140276;28;20059;-81
2023/08/05 19:53:15;;;;;;;6.22;5.05;;;;;;;14.72;97.33;99740.28;10138578;29;20550;-81
2023/08/05 19:58:18;;;;;;;6.03;4.32;;;;;;;14.78;97.15;99728.78;10138794;29;20047;-81
2023/08/05 20:03:23;;;;;;;9.00;5.15;;;;;;;14.79;96.91;99735.91;10138566;29;20552;-82
2023/08/05 20:08:26;;;;;;;7.28;5.47;;;;;;;14.74;97.38;99733.69;10139418;28;20070;-81
2023/08/05 20:13:29;;;;;;;11.57;7.00;;;;;;;14.71;96.89;99712.41;10141767;29;20055;-80
2023/08/05 20:18:33;;;;;;;7.80;5.40;;;;;;;14.71;97.10;99716.97;10134821;29;20074;-78
2023/08/05 20:23:36;;;;;;;8.40;6.03;;;;;;;14.66;96.81;99709.34;10134946;29;20717;-79
2023/08/05 20:28:39;;;;;;;11.23;6.30;;;;;;;14.58;97.10;99695.81;10139573;29;20381;-81
2023/08/05 20:33:43;;;;;;;8.32;5.45;;;;;;;14.58;96.88;99685.84;10136973;28;20056;-80
2023/08/05 20:38:46;;;;;;;8.48;6.30;;;;;;;14.60;96.98;99683.84;10157666;29;20043;-80
2023/08/05 20:43:51;;;;;;;9.10;6.90;;;;;;;14.60;96.42;99673.03;10141301;29;20056;-80
2023/08/05 20:48:55;;;;;;;9.65;7.53;;;;;;;14.51;96.33;99660.53;10140006;29;20049;-79
2023/08/05 20:53:58;;;;;;;9.00;7.65;;;;;;;14.49;96.84;99659.00;10144171;28;20190;-79
2023/08/05 20:59:02;;;;;;;11.65;7.97;;;;;;;14.53;96.84;99653.06;10169479;28;20060;-79
2023/08/05 21:04:06;;;;;;;12.13;8.75;;;;;;;14.59;97.20;99659.69;10147782;29;20052;-80
2023/08/05 21:09:09;;;;;;;14.45;10.30;;;;;;;14.60;96.73;99647.88;10154092;29;20064;-79
2023/08/05 21:14:13;;;;;;;17.48;11.50;;;;;;;14.43;96.32;99640.78;10152533;29;20052;-80
2023/08/05 21:19:17;;;;;;;16.63;10.80;;;;;;;14.28;96.28;99638.66;10132258;29;20538;-80
2023/08/05 21:24:20;;;;;;;15.93;12.95;;;;;;;14.26;96.34;99638.00;10149252;29;21175;-81
2023/08/05 21:29:24;;;;;;;16.23;12.07;;;;;;;14.24;96.67;99633.78;10148361;29;20054;-79
2023/08/05 21:34:28;;;;;;;18.73;12.32;;;;;;;14.25;96.56;99635.47;10163312;29;20050;-78
2023/08/05 21:39:31;;;;;;;16.65;12.63;;;;;;;14.24;96.36;99629.22;10156746;28;20064;-80
2023/08/05 21:44:36;;;;;;;16.25;12.35;;;;;;;14.17;96.27;99636.28;10153564;29;20051;-80
2023/08/05 21:49:40;;;;;;;12.95;10.55;;;;;;;14.02;96.31;99627.16;10169061;28;20063;-80
2023/08/05 21:54:44;;;;;;;10.90;9.13;;;;;;;14.07;96.28;99620.25;10148675;28;20049;-79
2023/08/05 21:59:47;;;;;;;11.00;8.50;;;;;;;14.10;96.42;99611.81;10161673;28;20063;-79
2023/08/05 22:04:51;;;;;;;9.95;8.63;;;;;;;14.22;96.47;99611.50;10154302;29;20071;-80
2023/08/05 22:09:55;;;;;;;10.90;7.95;;;;;;;14.23;96.22;99599.66;10145913;28;20047;-79
2023/08/05 22:14:57;;;;;;;10.23;7.60;;;;;;;14.26;96.56;99597.50;10146768;29;20052;-80
2023/08/05 22:20:03;;;;;;;13.05;7.43;;;;;;;14.15;95.87;99587.00;10152758;29;20055;-80
2023/08/05 22:25:06;;;;;;;10.35;6.63;;;;;;;14.06;96.57;99578.03;10151470;28;20060;-80
2023/08/05 22:30:09;;;;;;;12.60;7.47;;;;;;;14.08;96.55;99576.03;10140104;29;20084;-81
2023/08/05 22:35:13;;;;;;;11.93;7.80;;;;;;;14.15;96.86;99576.19;10143950;28;20081;-79
2023/08/05 22:40:16;;;;;;;14.10;7.88;;;;;;;14.10;96.56;99576.72;10129658;28;20052;-80
2023/08/05 22:45:19;;;;;;;13.13;9.18;;;;;;;14.08;96.60;99575.19;10131889;28;20060;-81
2023/08/05 22:50:24;;;;;;;8.88;7.03;;;;;;;14.07;96.31;99566.25;10154944;29;20044;-79
2023/08/05 22:55:26;;;;;;;6.60;5.97;;;;;;;14.14;96.45;99571.81;10136220;29;20139;-80
2023/08/05 23:00:29;;;;;;;10.07;7.03;;;;;;;14.18;96.79;99561.50;10134949;29;20059;-80
2023/08/05 23:05:37;;;;;;;8.20;6.25;;;;;;;14.16;96.68;99561.69;10131222;28;20092;-80
2023/08/05 23:10:39;;;;;;;8.10;6.00;;;;;;;14.12;96.54;99560.31;10139728;28;20472;-81
2023/08/05 23:15:42;;;;;;;7.65;5.95;;;;;;;14.05;96.35;99548.53;10137294;29;20055;-80